Terminal Aerodrome Forecast
Issued by NWS

Home | Current Version | Previous Version | Text Only | Print | Product List | Glossary On
Versions: 1 2 3 4 5 6 7 8 9 10 11 12 13 14 15 16 17 18 19 20 21 22 23
000
FTUS43 KTOP 181700
TAFMHK
TAF
KMHK 181730Z 1818/1918 12008KT P6SM BKN015
     FM182100 13008KT P6SM SCT015
     FM190700 17006KT 4SM BR BKN007
     FM191500 19008KT P6SM SCT015=

USA.gov is the U.S. government's official web portal to all federal, state and local government web resources and services.